Time;durP1;ratioP1;P1;durP2;ratioP2;P2;SDS_P1;SDS_P2;PMS_P1;PMS_P2;Temp;Humidity;BMP_temperature;BMP_pressure;BME280_temperature;BME280_humidity;BME280_pressure;Samples;Min_cycle;Max_cycle;Signal;HPM_P1;HPM_P2
2022/03/22 00:00:57;;;;;;;16.17;14.18;;;17.80;47.90;;;;;;4929290;28;98833;-68
2022/03/22 00:03:26;;;;;;;15.07;13.32;;;17.80;48.00;;;;;;4929589;28;97920;-70
2022/03/22 00:05:52;;;;;;;15.60;14.00;;;17.70;47.90;;;;;;4928828;28;100296;-68
2022/03/22 00:08:18;;;;;;;18.17;13.68;;;17.70;48.90;;;;;;4928398;28;99015;-69
2022/03/22 00:10:44;;;;;;;15.82;13.90;;;17.70;47.90;;;;;;4927947;28;99794;-69
2022/03/22 00:13:10;;;;;;;16.15;13.60;;;17.70;47.90;;;;;;4929652;28;98622;-70
2022/03/22 00:15:37;;;;;;;17.77;14.57;;;17.70;48.00;;;;;;4929436;28;99589;-70
2022/03/22 00:18:04;;;;;;;16.30;13.70;;;17.70;48.00;;;;;;4929972;28;99238;-69
2022/03/22 00:20:30;;;;;;;16.73;14.32;;;17.70;48.00;;;;;;4929609;28;100132;-69
2022/03/22 00:22:59;;;;;;;17.90;13.35;;;17.70;47.90;;;;;;4930218;28;98847;-70
2022/03/22 00:25:25;;;;;;;18.52;14.48;;;17.70;48.00;;;;;;4929351;28;99477;-69
2022/03/22 00:27:53;;;;;;;17.30;13.77;;;17.70;47.90;;;;;;4929554;28;98992;-70
2022/03/22 00:30:28;;;;;;;16.67;14.20;;;17.70;47.90;;;;;;4929883;28;99113;-70
2022/03/22 00:32:56;;;;;;;17.42;14.52;;;17.70;48.00;;;;;;4912752;28;98729;-69
2022/03/22 00:35:40;;;;;;;17.13;14.32;;;17.70;48.00;;;;;;4929129;28;100453;-69
2022/03/22 00:38:16;;;;;;;21.65;14.82;;;17.70;48.00;;;;;;4928997;28;98861;-70
2022/03/22 00:40:43;;;;;;;18.08;14.43;;;17.70;48.00;;;;;;4928828;28;99358;-69
2022/03/22 00:43:09;;;;;;;16.00;13.85;;;17.70;48.10;;;;;;4929672;28;100450;-69
2022/03/22 00:45:37;;;;;;;18.02;15.13;;;17.70;48.00;;;;;;4928891;28;99293;-69
2022/03/22 00:48:07;;;;;;;19.60;15.40;;;17.60;48.00;;;;;;4929200;28;101180;-69
2022/03/22 00:50:38;;;;;;;19.63;15.13;;;17.60;48.00;;;;;;4929697;28;99114;-69
2022/03/22 00:53:07;;;;;;;19.40;14.80;;;17.60;48.00;;;;;;4930120;28;97953;-71
2022/03/22 00:55:33;;;;;;;17.20;15.10;;;17.60;48.00;;;;;;4933597;28;99370;-68
2022/03/22 00:57:59;;;;;;;17.65;15.55;;;17.60;48.00;;;;;;4937159;28;99103;-69
2022/03/22 01:00:26;;;;;;;19.05;15.52;;;17.60;48.10;;;;;;4935786;28;99839;-68
2022/03/22 01:02:54;;;;;;;19.65;16.08;;;17.60;48.00;;;;;;4935776;28;98689;-68
2022/03/22 01:05:21;;;;;;;20.80;15.82;;;17.60;48.00;;;;;;4915682;28;99263;-70
2022/03/22 01:07:48;;;;;;;18.48;15.85;;;17.60;48.00;;;;;;4932342;28;100073;-69
2022/03/22 01:10:16;;;;;;;17.48;15.55;;;17.60;48.00;;;;;;4937412;28;100599;-69
2022/03/22 01:12:43;;;;;;;18.55;15.55;;;17.60;48.00;;;;;;4934970;28;98742;-70
2022/03/22 01:15:22;;;;;;;21.13;15.68;;;17.60;48.00;;;;;;4931521;28;99370;-70
2022/03/22 01:17:50;;;;;;;18.75;15.85;;;17.60;48.00;;;;;;4931613;28;100496;-69
2022/03/22 01:20:19;;;;;;;20.23;16.05;;;17.60;48.00;;;;;;4913531;28;98903;-69
2022/03/22 01:22:46;;;;;;;19.15;16.25;;;17.60;48.00;;;;;;4932072;28;98834;-69
2022/03/22 01:25:21;;;;;;;19.77;16.30;;;17.50;48.00;;;;;;4931168;28;100679;-69
2022/03/22 01:27:48;;;;;;;18.75;15.63;;;17.60;47.90;;;;;;4932906;28;99887;-69
2022/03/22 01:30:16;;;;;;;19.20;15.75;;;17.50;47.90;;;;;;4935300;28;99099;-70
2022/03/22 01:32:43;;;;;;;19.80;15.77;;;17.50;47.90;;;;;;4918003;28;99386;-69
2022/03/22 01:35:09;;;;;;;20.13;16.52;;;17.50;47.90;;;;;;4931978;28;99440;-71
2022/03/22 01:37:36;;;;;;;20.02;16.33;;;17.50;47.90;;;;;;4931624;28;98641;-69
2022/03/22 01:40:02;;;;;;;20.85;16.75;;;17.50;47.90;;;;;;4931794;28;99202;-70
2022/03/22 01:42:29;;;;;;;19.98;16.42;;;17.50;47.90;;;;;;4932432;28;98311;-70
2022/03/22 01:44:54;;;;;;;19.40;16.30;;;17.50;47.90;;;;;;4931166;28;100767;-69
2022/03/22 01:47:23;;;;;;;21.17;16.95;;;17.50;47.90;;;;;;4931606;28;99067;-72
2022/03/22 01:49:50;;;;;;;20.35;17.10;;;17.50;47.90;;;;;;4930461;28;99374;-71
2022/03/22 01:52:20;;;;;;;20.58;16.25;;;17.50;47.90;;;;;;4932172;28;98714;-69
2022/03/22 01:54:49;;;;;;;20.00;16.45;;;17.50;47.90;;;;;;4932018;28;99544;-69
2022/03/22 01:57:17;;;;;;;19.55;17.02;;;17.50;47.90;;;;;;4930927;28;99241;-70
2022/03/22 01:59:43;;;;;;;19.20;16.35;;;17.50;47.90;;;;;;4930753;28;99190;-68
2022/03/22 02:07:41;;;;;;;18.85;16.48;;;17.50;47.90;;;;;;4929404;28;98417;-70
2022/03/22 02:10:08;;;;;;;18.95;16.77;;;17.40;47.90;;;;;;4930635;28;99050;-69
2022/03/22 02:12:34;;;;;;;18.88;16.23;;;17.40;47.90;;;;;;4931323;28;99068;-69
2022/03/22 02:14:59;;;;;;;20.73;16.40;;;17.40;47.90;;;;;;4931238;28;100949;-70
2022/03/22 02:17:25;;;;;;;20.73;17.52;;;17.40;47.80;;;;;;4913477;28;102615;-70
2022/03/22 02:19:51;;;;;;;22.27;17.73;;;17.40;47.80;;;;;;4930488;28;98714;-69
2022/03/22 02:22:18;;;;;;;20.23;16.35;;;17.40;47.90;;;;;;4930720;28;98471;-70
2022/03/22 02:24:44;;;;;;;22.95;18.38;;;17.40;47.90;;;;;;4930400;28;99792;-69
2022/03/22 02:27:10;;;;;;;23.40;17.55;;;17.40;47.80;;;;;;4930418;28;99021;-69
2022/03/22 02:29:36;;;;;;;18.85;16.83;;;17.40;47.80;;;;;;4930067;28;99581;-69
2022/03/22 02:32:04;;;;;;;19.60;17.33;;;17.40;47.90;;;;;;4930796;28;98297;-69
2022/03/22 02:34:30;;;;;;;19.80;17.38;;;17.40;47.80;;;;;;4931066;28;99069;-69
2022/03/22 02:36:57;;;;;;;20.10;16.95;;;17.40;47.80;;;;;;4930937;28;100498;-69
2022/03/22 02:39:24;;;;;;;21.83;17.50;;;17.40;47.80;;;;;;4912563;28;99834;-71
2022/03/22 02:41:51;;;;;;;20.10;17.63;;;17.40;47.80;;;;;;4929767;28;98658;-68
2022/03/22 02:44:20;;;;;;;22.35;18.52;;;17.40;47.80;;;;;;4930107;28;100060;-69
2022/03/22 02:46:46;;;;;;;22.02;17.88;;;17.40;47.90;;;;;;4929920;28;101098;-70
2022/03/22 02:49:13;;;;;;;23.33;17.90;;;17.40;47.80;;;;;;4931110;28;98807;-70
2022/03/22 02:51:39;;;;;;;20.55;17.70;;;17.40;47.80;;;;;;4930638;28;99060;-70
2022/03/22 02:54:05;;;;;;;22.65;17.40;;;17.40;47.80;;;;;;4929555;28;99071;-69
2022/03/22 02:56:30;;;;;;;21.75;17.90;;;17.40;47.80;;;;;;4930430;28;98326;-68
2022/03/22 02:58:57;;;;;;;21.08;17.85;;;17.30;47.80;;;;;;4930851;28;99262;-70
2022/03/22 03:01:23;;;;;;;21.05;17.40;;;17.40;47.80;;;;;;4930761;28;99080;-70
2022/03/22 03:03:49;;;;;;;23.20;18.75;;;17.30;47.80;;;;;;4929430;28;108723;-71
2022/03/22 03:06:15;;;;;;;22.98;18.42;;;17.30;47.80;;;;;;4931913;28;100986;-70
2022/03/22 03:08:42;;;;;;;22.25;18.05;;;17.30;47.80;;;;;;4933490;28;98675;-70
2022/03/22 03:11:09;;;;;;;20.95;18.27;;;17.30;47.70;;;;;;4935703;28;98588;-70
2022/03/22 03:16:19;;;;;;;20.70;17.85;;;17.30;47.80;;;;;;4931465;28;99114;-70
2022/03/22 03:18:44;;;;;;;24.52;18.42;;;17.30;47.80;;;;;;4930432;28;99200;-68
2022/03/22 03:21:11;;;;;;;21.40;18.42;;;17.30;47.80;;;;;;4913063;28;98462;-69
2022/03/22 03:23:36;;;;;;;22.35;18.95;;;17.30;47.80;;;;;;4929966;28;100433;-69
2022/03/22 03:26:02;;;;;;;24.15;18.83;;;17.30;47.80;;;;;;4929953;28;98956;-69
2022/03/22 03:28:27;;;;;;;22.20;18.58;;;17.30;47.80;;;;;;4929392;28;99853;-70
2022/03/22 03:30:53;;;;;;;22.63;18.75;;;17.30;47.70;;;;;;4930918;28;98581;-69
2022/03/22 03:33:19;;;;;;;23.98;18.83;;;17.30;47.80;;;;;;4931276;28;100575;-69
2022/03/22 03:35:45;;;;;;;22.75;18.80;;;17.30;47.70;;;;;;4930261;28;98827;-70
2022/03/22 03:38:11;;;;;;;22.85;18.15;;;17.30;47.80;;;;;;4929841;28;98996;-70
2022/03/22 03:43:21;;;;;;;23.15;18.30;;;17.30;47.80;;;;;;4930037;28;98847;-69
2022/03/22 03:48:31;;;;;;;23.42;18.80;;;17.20;47.70;;;;;;4929053;28;100364;-69
2022/03/22 03:50:57;;;;;;;23.85;18.67;;;17.20;47.70;;;;;;4928563;28;98879;-70
2022/03/22 03:53:23;;;;;;;22.80;18.60;;;17.20;47.70;;;;;;4928353;28;99830;-70
2022/03/22 03:55:49;;;;;;;20.33;18.05;;;17.20;47.80;;;;;;4929231;28;101069;-69
2022/03/22 03:58:14;;;;;;;21.05;18.10;;;17.20;47.70;;;;;;4929222;28;98966;-69
2022/03/22 04:00:40;;;;;;;23.75;19.50;;;17.20;47.70;;;;;;4928264;28;98706;-69
2022/03/22 04:03:05;;;;;;;23.75;19.50;;;17.20;47.70;;;;;;4928704;28;99381;-69
2022/03/22 04:05:31;;;;;;;23.98;18.05;;;17.20;47.70;;;;;;4928039;28;115276;-71
2022/03/22 04:07:56;;;;;;;23.58;18.65;;;17.20;47.70;;;;;;4929165;28;99124;-70
2022/03/22 04:10:22;;;;;;;22.38;19.02;;;17.20;47.80;;;;;;4928920;28;98475;-70
2022/03/22 04:12:48;;;;;;;23.02;18.95;;;17.20;47.70;;;;;;4927504;28;100542;-69
2022/03/22 04:15:13;;;;;;;22.33;18.73;;;17.20;47.80;;;;;;4928052;28;102238;-70
2022/03/22 04:17:40;;;;;;;24.85;19.10;;;17.20;47.80;;;;;;4928237;28;99966;-69
2022/03/22 04:20:07;;;;;;;24.30;19.58;;;17.20;47.70;;;;;;4927730;28;98780;-70
2022/03/22 04:22:33;;;;;;;22.30;19.35;;;17.20;47.70;;;;;;4928904;28;101595;-70
2022/03/22 04:24:58;;;;;;;22.65;19.23;;;17.20;47.70;;;;;;4928638;28;99086;-68
2022/03/22 04:32:55;;;;;;;23.42;19.25;;;17.20;47.70;;;;;;4930367;28;98985;-69
2022/03/22 04:35:27;;;;;;;23.35;20.00;;;17.10;47.60;;;;;;4929036;28;98937;-69
2022/03/22 04:37:53;;;;;;;21.88;18.60;;;17.10;47.60;;;;;;4929319;28;99143;-70
2022/03/22 04:40:20;;;;;;;24.55;19.15;;;17.10;47.60;;;;;;4930069;28;99078;-70
2022/03/22 04:42:52;;;;;;;26.73;19.33;;;17.10;47.60;;;;;;4927666;28;101408;-69
2022/03/22 04:45:19;;;;;;;23.17;18.33;;;17.10;48.60;;;;;;4927969;28;101646;-69
2022/03/22 04:47:45;;;;;;;24.83;20.38;;;17.10;47.70;;;;;;4930428;28;98928;-69
2022/03/22 04:50:12;;;;;;;23.10;19.10;;;17.10;47.60;;;;;;4930580;28;98664;-70
2022/03/22 04:58:07;;;;;;;22.58;19.30;;;17.10;47.70;;;;;;4928869;28;98639;-69
2022/03/22 05:00:36;;;;;;;23.85;19.98;;;17.10;47.70;;;;;;4929221;28;97964;-70
2022/03/22 05:03:03;;;;;;;24.42;18.75;;;17.10;47.60;;;;;;4929553;28;99874;-68
2022/03/22 05:08:18;;;;;;;23.02;19.58;;;17.10;47.60;;;;;;4882344;28;99368;-69
2022/03/22 05:10:44;;;;;;;24.23;20.15;;;17.00;47.70;;;;;;4911744;28;98748;-69
2022/03/22 05:13:10;;;;;;;26.92;21.08;;;17.00;47.70;;;;;;4928970;28;99661;-71
2022/03/22 06:19:19;;;;;;;24.13;18.45;;;17.70;46.60;;;;;;5119029;22;100192;-68
2022/03/22 06:21:44;;;;;;;21.65;18.02;;;17.80;46.40;;;;;;4951512;28;100089;-67
2022/03/22 06:24:10;;;;;;;20.90;17.55;;;17.90;46.10;;;;;;4968388;28;98732;-65
2022/03/22 06:26:36;;;;;;;23.55;17.83;;;18.00;45.90;;;;;;4968763;28;98623;-67
2022/03/22 06:29:02;;;;;;;21.48;17.85;;;18.10;45.70;;;;;;4968355;28;98928;-67
2022/03/22 06:31:33;;;;;;;20.48;16.60;;;18.20;45.60;;;;;;4967914;28;101142;-72
2022/03/22 06:34:00;;;;;;;21.17;16.65;;;18.30;45.50;;;;;;4968344;28;100071;-68
2022/03/22 06:36:27;;;;;;;24.75;17.10;;;18.30;45.50;;;;;;4967696;28;98787;-66
2022/03/22 06:38:53;;;;;;;93.45;20.30;;;18.30;45.40;;;;;;4969553;28;99610;-66
2022/03/22 06:41:20;;;;;;;37.10;16.48;;;18.20;45.80;;;;;;4968560;28;99404;-67
2022/03/22 06:43:46;;;;;;;37.60;16.88;;;18.20;45.80;;;;;;4968313;28;100015;-65
2022/03/22 06:46:11;;;;;;;42.15;17.10;;;18.30;45.90;;;;;;4969066;28;99120;-68
2022/03/22 06:48:38;;;;;;;32.58;17.25;;;18.20;45.90;;;;;;4968370;28;98412;-67
2022/03/22 06:51:04;;;;;;;29.08;17.15;;;18.30;46.10;;;;;;4968966;28;99806;-67
2022/03/22 06:53:29;;;;;;;27.60;16.33;;;18.30;46.10;;;;;;4968295;28;98854;-68
2022/03/22 06:55:57;;;;;;;30.10;16.17;;;18.30;46.10;;;;;;4968376;28;101734;-65
2022/03/22 06:58:24;;;;;;;33.22;16.25;;;18.30;46.20;;;;;;4968115;28;99262;-66
2022/03/22 07:00:55;;;;;;;31.65;16.55;;;18.30;46.40;;;;;;4951012;28;100212;-66
2022/03/22 07:03:20;;;;;;;28.75;17.30;;;18.30;46.50;;;;;;4967362;28;100168;-67
2022/03/22 07:05:46;;;;;;;50.47;21.15;;;18.30;46.60;;;;;;4968577;28;98760;-67
2022/03/22 07:08:13;;;;;;;44.35;20.17;;;18.30;46.60;;;;;;4968076;28;98966;-67
2022/03/22 07:10:39;;;;;;;56.38;21.17;;;18.30;46.60;;;;;;4967145;28;99362;-67
2022/03/22 07:13:08;;;;;;;49.47;19.60;;;18.30;46.80;;;;;;4969421;28;98906;-69
2022/03/22 07:15:36;;;;;;;41.85;17.60;;;18.30;47.70;;;;;;4969899;28;98622;-69
2022/03/22 07:18:05;;;;;;;36.38;16.88;;;18.40;48.10;;;;;;4968578;28;98512;-69
2022/03/22 07:20:31;;;;;;;36.67;17.10;;;18.50;48.00;;;;;;4967032;28;100997;-70
2022/03/22 07:22:57;;;;;;;34.60;16.65;;;18.60;47.70;;;;;;4968499;28;100827;-70
2022/03/22 07:25:23;;;;;;;35.83;16.77;;;18.70;47.60;;;;;;4969067;28;99056;-69
2022/03/22 07:27:49;;;;;;;34.83;17.10;;;18.60;47.70;;;;;;4968542;28;98832;-68
2022/03/22 07:30:15;;;;;;;31.70;17.23;;;18.60;47.90;;;;;;4951513;28;100572;-68
2022/03/22 07:32:45;;;;;;;37.55;16.30;;;18.50;48.10;;;;;;4968624;28;100572;-68
2022/03/22 07:35:12;;;;;;;30.83;17.10;;;18.40;48.20;;;;;;4968722;28;98916;-68
2022/03/22 07:37:38;;;;;;;33.53;16.77;;;18.30;48.40;;;;;;4969614;28;98274;-69
2022/03/22 07:40:07;;;;;;;38.30;17.05;;;18.20;48.90;;;;;;4967381;28;100196;-68
2022/03/22 07:42:32;;;;;;;36.65;22.02;;;18.20;49.30;;;;;;4967346;28;99823;-68
2022/03/22 07:45:03;;;;;;;52.95;26.23;;;18.20;49.20;;;;;;4967845;28;99340;-68
2022/03/22 07:47:29;;;;;;;36.20;23.40;;;18.10;49.00;;;;;;4968942;28;99158;-68
2022/03/22 07:53:00;;;;;;;38.17;26.15;;;18.00;49.10;;;;;;4968755;28;98674;-69
2022/03/22 07:55:29;;;;;;;39.97;25.98;;;18.00;49.20;;;;;;4968777;28;99186;-68
2022/03/22 07:57:57;;;;;;;38.10;26.27;;;18.00;49.80;;;;;;4968210;28;98971;-70
2022/03/22 08:00:24;;;;;;;38.70;27.42;;;17.90;50.40;;;;;;4968097;28;101070;-68
2022/03/22 08:02:58;;;;;;;41.85;26.77;;;17.90;51.20;;;;;;4968738;28;99057;-68
2022/03/22 08:05:25;;;;;;;45.05;28.05;;;17.90;53.20;;;;;;4968405;28;98979;-68
2022/03/22 08:07:51;;;;;;;36.53;26.42;;;17.90;53.80;;;;;;4970934;28;98612;-70
2022/03/22 08:10:17;;;;;;;38.05;27.05;;;17.90;54.60;;;;;;4966282;28;99749;-68
2022/03/22 08:12:43;;;;;;;36.17;26.48;;;17.90;54.90;;;;;;4968290;28;98762;-67
2022/03/22 08:15:10;;;;;;;38.78;27.13;;;17.90;54.90;;;;;;4967111;28;98843;-67
2022/03/22 08:17:37;;;;;;;38.53;28.20;;;17.90;55.00;;;;;;4967232;28;98990;-68
2022/03/22 08:20:04;;;;;;;40.55;27.27;;;17.90;55.10;;;;;;4967801;28;100297;-67
2022/03/22 08:22:32;;;;;;;40.63;27.05;;;17.90;55.10;;;;;;4967374;28;98934;-67
2022/03/22 08:24:59;;;;;;;38.85;27.02;;;17.80;55.30;;;;;;4968088;28;99027;-67
2022/03/22 08:27:24;;;;;;;34.17;26.10;;;17.80;55.00;;;;;;4968003;28;99554;-67
2022/03/22 08:29:51;;;;;;;39.20;26.30;;;17.80;54.80;;;;;;4967509;28;100123;-66
2022/03/22 08:32:16;;;;;;;36.78;26.02;;;17.80;54.70;;;;;;4966543;28;99446;-66
2022/03/22 08:34:42;;;;;;;38.80;26.45;;;17.80;54.60;;;;;;4967577;28;99901;-66
2022/03/22 08:37:08;;;;;;;33.50;25.25;;;17.80;54.40;;;;;;4967450;28;99131;-68
2022/03/22 08:39:33;;;;;;;41.03;27.00;;;17.80;54.40;;;;;;4968092;28;99287;-69
2022/03/22 08:41:59;;;;;;;38.90;25.95;;;17.70;54.80;;;;;;4968734;28;99854;-70
2022/03/22 08:44:24;;;;;;;36.50;25.88;;;17.70;55.00;;;;;;4968927;28;98614;-71
2022/03/22 08:46:51;;;;;;;36.08;23.98;;;17.70;55.30;;;;;;4968317;28;98834;-71
2022/03/22 08:49:17;;;;;;;35.33;26.38;;;17.70;55.10;;;;;;4966507;28;100166;-71
2022/03/22 08:51:43;;;;;;;38.70;25.95;;;17.70;55.00;;;;;;4968761;28;98949;-71
2022/03/22 08:54:09;;;;;;;36.72;24.95;;;17.70;55.10;;;;;;4967251;28;99175;-71
2022/03/22 08:56:34;;;;;;;35.35;25.67;;;17.70;55.00;;;;;;4950274;28;98721;-70
2022/03/22 08:59:00;;;;;;;33.42;25.23;;;17.70;55.10;;;;;;4966871;28;100967;-70
2022/03/22 09:01:30;;;;;;;36.80;24.90;;;17.70;55.00;;;;;;4967265;28;100670;-71
2022/03/22 09:06:40;;;;;;;30.45;23.52;;;17.70;54.90;;;;;;4966923;28;98661;-72
2022/03/22 09:09:09;;;;;;;30.75;23.30;;;17.70;54.80;;;;;;4967514;28;100178;-71
2022/03/22 09:11:36;;;;;;;32.25;24.63;;;17.70;54.80;;;;;;4966269;28;100058;-70
2022/03/22 09:14:02;;;;;;;31.80;24.55;;;17.70;54.80;;;;;;4966839;28;98957;-72
2022/03/22 09:16:28;;;;;;;42.97;24.45;;;17.70;54.70;;;;;;4967385;28;97891;-70
2022/03/22 09:18:53;;;;;;;30.50;23.70;;;17.70;54.70;;;;;;4966797;28;100800;-70
2022/03/22 09:21:19;;;;;;;33.03;24.17;;;17.70;54.60;;;;;;4966583;28;98798;-71
2022/03/22 09:23:45;;;;;;;30.02;22.80;;;17.70;54.60;;;;;;4966278;28;99369;-70
2022/03/22 09:26:10;;;;;;;28.85;22.55;;;17.70;54.40;;;;;;4950929;28;99087;-70
2022/03/22 09:28:37;;;;;;;29.77;23.55;;;17.70;54.40;;;;;;4966391;28;99868;-70
2022/03/22 09:31:03;;;;;;;29.73;23.48;;;17.70;54.30;;;;;;4970577;28;99911;-71
2022/03/22 09:33:30;;;;;;;31.00;24.17;;;17.70;54.20;;;;;;4971213;28;98837;-71
2022/03/22 09:35:57;;;;;;;31.33;23.58;;;17.70;54.10;;;;;;4971935;28;98765;-71
2022/03/22 09:38:24;;;;;;;30.40;23.52;;;17.70;54.10;;;;;;4971157;28;101521;-70
2022/03/22 09:40:52;;;;;;;31.85;23.13;;;17.70;53.90;;;;;;4970955;28;100124;-70
2022/03/22 09:43:20;;;;;;;30.73;22.67;;;17.70;53.80;;;;;;4971790;28;98587;-71
2022/03/22 09:45:46;;;;;;;28.27;21.98;;;17.70;53.80;;;;;;4971447;28;98939;-71
2022/03/22 09:48:12;;;;;;;27.10;21.58;;;17.70;53.70;;;;;;4971110;28;101411;-70
2022/03/22 09:53:22;;;;;;;29.42;22.63;;;17.80;53.60;;;;;;4972103;28;98808;-71
2022/03/22 09:55:48;;;;;;;29.65;22.42;;;17.80;53.50;;;;;;4971724;28;98642;-71
2022/03/22 09:58:14;;;;;;;27.73;21.92;;;17.80;53.50;;;;;;4970535;28;99428;-71
2022/03/22 10:00:40;;;;;;;26.10;21.63;;;17.80;53.30;;;;;;4970891;28;99973;-71
2022/03/22 10:03:06;;;;;;;28.13;21.40;;;17.80;53.20;;;;;;4972379;28;99116;-71
2022/03/22 10:05:31;;;;;;;26.13;21.58;;;17.80;53.20;;;;;;4971462;28;98501;-72
2022/03/22 10:08:05;;;;;;;27.58;21.17;;;17.80;53.10;;;;;;4970795;28;100286;-71
2022/03/22 10:10:30;;;;;;;25.35;20.48;;;17.80;53.00;;;;;;4971339;28;100105;-71
2022/03/22 10:12:58;;;;;;;26.15;20.98;;;17.90;53.00;;;;;;4970916;28;99549;-71
2022/03/22 10:15:32;;;;;;;26.48;20.63;;;17.90;52.90;;;;;;4970577;28;98958;-71
2022/03/22 10:18:07;;;;;;;25.33;20.08;;;17.90;52.90;;;;;;4970991;28;99478;-71
2022/03/22 10:20:36;;;;;;;24.85;20.38;;;17.90;52.80;;;;;;4969927;28;100186;-71
2022/03/22 10:23:05;;;;;;;24.33;20.42;;;17.90;52.80;;;;;;4973298;28;99071;-71
2022/03/22 10:25:32;;;;;;;24.30;19.17;;;17.90;52.70;;;;;;4974632;28;98623;-71
2022/03/22 10:28:00;;;;;;;23.38;19.58;;;17.90;52.70;;;;;;4973612;28;100362;-71
2022/03/22 10:30:27;;;;;;;24.85;19.08;;;17.90;52.60;;;;;;4972797;28;100046;-70
2022/03/22 10:32:53;;;;;;;27.73;20.70;;;17.90;52.50;;;;;;4971241;28;98752;-71
2022/03/22 10:35:34;;;;;;;24.23;18.27;;;18.00;52.60;;;;;;4972780;28;98809;-71
2022/03/22 10:38:01;;;;;;;23.65;19.13;;;18.00;52.50;;;;;;4971998;28;103411;-71
2022/03/22 10:40:32;;;;;;;23.58;18.63;;;18.00;52.50;;;;;;4972158;28;99693;-70
2022/03/22 10:43:00;;;;;;;25.52;18.58;;;18.00;52.40;;;;;;4972699;28;98644;-70
2022/03/22 10:45:29;;;;;;;23.90;18.30;;;18.00;52.40;;;;;;4971240;28;98693;-71
2022/03/22 10:47:56;;;;;;;22.33;17.58;;;18.00;52.40;;;;;;4971309;28;100961;-71
2022/03/22 10:50:23;;;;;;;23.35;18.23;;;18.00;53.30;;;;;;4969121;28;99925;-71
2022/03/22 10:52:50;;;;;;;21.67;17.63;;;18.00;52.30;;;;;;4970305;28;98952;-71
2022/03/22 10:55:19;;;;;;;24.55;18.90;;;18.00;52.20;;;;;;4970275;28;98132;-71
2022/03/22 10:57:48;;;;;;;22.42;17.83;;;18.00;52.20;;;;;;4970420;28;99115;-71
2022/03/22 11:00:15;;;;;;;23.88;17.20;;;18.00;52.20;;;;;;4969580;28;100379;-70
2022/03/22 11:02:41;;;;;;;22.75;16.98;;;18.00;52.20;;;;;;4968760;28;99962;-70
2022/03/22 11:05:08;;;;;;;22.20;16.75;;;18.00;52.20;;;;;;4970704;28;98983;-70
2022/03/22 11:07:35;;;;;;;22.40;17.00;;;18.00;52.10;;;;;;4969086;28;100589;-70
2022/03/22 11:10:01;;;;;;;21.73;16.27;;;18.00;52.10;;;;;;4970490;28;98754;-71
2022/03/22 11:12:28;;;;;;;19.60;16.05;;;18.00;52.10;;;;;;4969878;28;98594;-71
2022/03/22 11:14:58;;;;;;;19.48;16.13;;;18.00;52.00;;;;;;4970959;28;98586;-71
2022/03/22 11:17:28;;;;;;;19.58;16.48;;;18.00;52.00;;;;;;4969599;28;99196;-71
2022/03/22 11:19:55;;;;;;;20.42;16.02;;;18.00;52.00;;;;;;4969503;28;99994;-71
2022/03/22 11:22:22;;;;;;;19.50;15.63;;;18.00;52.00;;;;;;4969557;28;99353;-71
2022/03/22 11:24:48;;;;;;;20.67;15.38;;;18.00;52.00;;;;;;4969758;28;99897;-71
2022/03/22 11:27:13;;;;;;;18.05;15.45;;;18.00;52.00;;;;;;4969767;28;100927;-71
2022/03/22 11:29:40;;;;;;;17.60;14.55;;;18.00;52.00;;;;;;4970341;28;99659;-71
2022/03/22 11:34:53;;;;;;;17.52;15.02;;;18.10;52.00;;;;;;4969802;28;98962;-71
2022/03/22 11:37:33;;;;;;;16.23;14.52;;;18.00;51.90;;;;;;4969196;28;99888;-71
2022/03/22 11:42:56;;;;;;;16.92;14.90;;;18.10;51.90;;;;;;4970975;28;98650;-71
2022/03/22 11:45:24;;;;;;;17.50;14.73;;;18.10;51.90;;;;;;4969175;28;98419;-71
2022/03/22 11:47:54;;;;;;;16.90;14.20;;;18.00;51.80;;;;;;4968582;28;100807;-71
2022/03/22 11:50:22;;;;;;;16.33;13.90;;;18.10;51.90;;;;;;4968611;28;101002;-71
2022/03/22 11:53:00;;;;;;;16.73;13.57;;;18.10;51.80;;;;;;4968514;28;99695;-71
2022/03/22 11:55:26;;;;;;;15.98;13.73;;;18.10;51.90;;;;;;4968877;28;98650;-71
2022/03/22 11:57:58;;;;;;;15.43;13.07;;;18.10;51.90;;;;;;4969118;28;100394;-71
2022/03/22 12:00:51;;;;;;;15.60;13.30;;;18.10;51.80;;;;;;4969929;28;98858;-71
2022/03/22 12:03:19;;;;;;;;;;;18.10;51.70;;;;;;4970295;28;98733;-70
2022/03/22 12:05:45;;;;;;;15.13;12.85;;;18.10;51.80;;;;;;4971605;28;98543;-71
2022/03/22 12:08:15;;;;;;;15.52;13.35;;;18.10;51.90;;;;;;4968788;28;99180;-71
2022/03/22 12:10:47;;;;;;;15.90;12.98;;;18.10;51.70;;;;;;4969919;28;99929;-71
2022/03/22 12:13:13;;;;;;;17.48;13.20;;;18.10;51.70;;;;;;4969764;28;98671;-71
2022/03/22 12:15:39;;;;;;;15.68;13.05;;;18.10;51.70;;;;;;4970145;28;99114;-71
2022/03/22 12:18:08;;;;;;;14.70;12.70;;;18.10;51.70;;;;;;4968089;28;99928;-71
2022/03/22 12:20:33;;;;;;;14.45;11.95;;;18.10;51.70;;;;;;4967012;28;101411;-71
2022/03/22 12:22:59;;;;;;;14.27;11.82;;;18.10;51.70;;;;;;4969953;28;99000;-71
2022/03/22 12:25:30;;;;;;;15.07;11.95;;;18.10;51.70;;;;;;4969558;28;98863;-71
2022/03/22 12:28:09;;;;;;;14.02;12.27;;;18.10;51.70;;;;;;4967893;28;99736;-71
2022/03/22 12:30:40;;;;;;;14.50;12.68;;;18.20;51.60;;;;;;4967902;28;100117;-71
2022/03/22 12:33:13;;;;;;;14.05;11.27;;;18.20;51.60;;;;;;4968794;28;99096;-70
2022/03/22 12:35:40;;;;;;;13.80;11.55;;;18.20;51.50;;;;;;4970369;28;97821;-71
2022/03/22 12:38:06;;;;;;;12.63;11.15;;;18.20;51.60;;;;;;4969545;28;99380;-71
2022/03/22 12:40:33;;;;;;;12.90;11.18;;;18.20;51.50;;;;;;4967909;28;99067;-72
2022/03/22 12:42:59;;;;;;;12.18;10.63;;;18.20;51.50;;;;;;4968431;28;99435;-71
2022/03/22 12:45:27;;;;;;;12.80;10.98;;;18.20;51.50;;;;;;4969827;28;98580;-71
2022/03/22 12:47:56;;;;;;;13.50;11.35;;;18.20;51.50;;;;;;4968415;28;99227;-71
2022/03/22 12:50:21;;;;;;;11.75;9.93;;;18.20;51.50;;;;;;4967125;28;101024;-71
2022/03/22 12:52:50;;;;;;;12.43;10.63;;;18.20;51.50;;;;;;4969651;28;98935;-71
2022/03/22 12:55:18;;;;;;;13.13;10.48;;;18.20;51.40;;;;;;4968147;28;99005;-71
2022/03/22 12:57:46;;;;;;;12.88;10.50;;;18.20;51.40;;;;;;4968930;28;100187;-71
2022/03/22 13:00:31;;;;;;;11.55;10.18;;;18.20;51.40;;;;;;4969075;28;99376;-71
2022/03/22 13:03:08;;;;;;;12.10;10.40;;;18.30;51.40;;;;;;4968569;28;99045;-70
2022/03/22 13:05:48;;;;;;;12.77;10.75;;;18.30;51.40;;;;;;4971476;28;99771;-71
2022/03/22 13:08:18;;;;;;;11.85;9.65;;;18.30;51.40;;;;;;4970446;28;100010;-71
2022/03/22 13:15:01;;;;;;;11.50;9.77;;;18.30;51.40;;;;;;4972498;28;98989;-71
2022/03/22 13:16:24;;;;;;;11.10;9.80;;;18.30;51.40;;;;;;4971730;28;98692;-71
2022/03/22 13:18:52;;;;;;;12.48;9.85;;;18.30;51.30;;;;;;4971834;28;100335;-71
2022/03/22 13:21:26;;;;;;;10.80;9.32;;;18.30;51.30;;;;;;4971872;28;99880;-71
2022/03/22 13:24:04;;;;;;;11.02;9.35;;;18.30;51.30;;;;;;4972192;28;98562;-72
2022/03/22 13:26:30;;;;;;;10.30;9.30;;;18.30;51.30;;;;;;4973339;28;98348;-71
2022/03/22 13:28:55;;;;;;;13.13;9.73;;;18.30;51.30;;;;;;4971498;28;100403;-72
2022/03/22 13:31:22;;;;;;;10.77;9.40;;;18.30;51.30;;;;;;4972710;28;98612;-71
2022/03/22 13:33:55;;;;;;;10.88;9.77;;;18.30;51.30;;;;;;4972692;28;100062;-72
2022/03/22 13:36:22;;;;;;;10.90;9.30;;;18.30;51.20;;;;;;4972560;28;98641;-72
2022/03/22 13:38:50;;;;;;;9.82;8.82;;;18.30;51.20;;;;;;4972287;28;99077;-71
2022/03/22 13:41:29;;;;;;;9.30;8.38;;;18.30;51.10;;;;;;4972188;28;99941;-71
2022/03/22 13:43:55;;;;;;;11.13;8.80;;;18.30;51.10;;;;;;4972142;28;98779;-72
2022/03/22 13:46:21;;;;;;;10.15;8.80;;;18.40;51.20;;;;;;4972503;28;98712;-72
2022/03/22 13:48:51;;;;;;;10.15;8.55;;;18.40;51.20;;;;;;4974750;28;104329;-72
2022/03/22 13:51:24;;;;;;;10.05;8.77;;;18.40;51.10;;;;;;4975275;28;100559;-72
2022/03/22 13:53:49;;;;;;;;;;;18.40;51.10;;;;;;4958150;28;98885;-72
2022/03/22 13:56:21;;;;;;;9.82;8.25;;;18.40;51.10;;;;;;4974562;28;98595;-72
2022/03/22 13:58:47;;;;;;;9.63;8.40;;;18.40;51.10;;;;;;4971097;28;99847;-71
2022/03/22 14:01:13;;;;;;;9.50;8.35;;;18.40;51.10;;;;;;4971507;28;100672;-71
2022/03/22 14:03:41;;;;;;;8.98;8.00;;;18.40;51.00;;;;;;4969917;28;99052;-72
2022/03/22 14:06:06;;;;;;;9.05;8.15;;;18.40;51.00;;;;;;4971392;28;98951;-71
2022/03/22 14:08:34;;;;;;;9.00;8.10;;;18.40;51.00;;;;;;4970851;28;99161;-71
2022/03/22 14:10:59;;;;;;;10.70;8.85;;;18.50;51.00;;;;;;4970484;28;100222;-71
2022/03/22 14:13:28;;;;;;;8.65;7.75;;;18.50;50.90;;;;;;4971067;28;98690;-71
2022/03/22 14:15:55;;;;;;;9.85;8.30;;;18.50;50.90;;;;;;4970876;28;98230;-71